Terminal Aerodrome Forecast
Issued by NWS

Home | Current Version | Previous Version | Text Only | Print | Product List | Glossary On
Versions: 1 2 3 4 5 6 7 8 9 10 11 12 13 14 15 16 17 18 19 20 21 22 23 24
000
FTUS44 KHGX 192332
TAFSGR
TAF
KSGR 192332Z 2000/2024 13014KT P6SM SCT018 BKN050
      TEMPO 2001/2002 BKN015
     FM200200 13012KT P6SM OVC015
     FM201000 16007KT 6SM SHRA BR OVC008
      TEMPO 2011/2015 VRB25KT 2SM TSRA OVC007CB
     FM201600 09008KT 4SM SHRA VCTS BKN010CB
     FM202200 09006KT 6SM -RA SCT020 BKN035 BKN120=

USA.gov is the U.S. government's official web portal to all federal, state and local government web resources and services.